Time;durP1;ratioP1;P1;durP2;ratioP2;P2;SDS_P1;SDS_P2;PMS_P1;PMS_P2;Temp;Humidity;BMP_temperature;BMP_pressure;BME280_temperature;BME280_humidity;BME280_pressure;Samples;Min_cycle;Max_cycle;Signal;HPM_P1;HPM_P2
2022/08/11 00:01:59;;;;;;;;;4.00;4.00;;;;;17.78;61.36;100075.41;6290100;20;2746124;-47
2022/08/11 00:04:36;;;;;;;;;4.00;4.00;;;;;17.19;63.36;100066.88;6291262;20;2747215;-48
2022/08/11 00:07:05;;;;;;;;;5.00;5.00;;;;;16.74;65.19;100064.19;6288710;20;2756642;-47
2022/08/11 00:09:37;;;;;;;;;5.00;5.00;;;;;16.98;64.93;100050.50;6289421;20;2748242;-47
2022/08/11 00:12:15;;;;;;;;;5.00;5.00;;;;;17.19;63.59;100062.28;6287873;20;2747208;-49
2022/08/11 00:14:54;;;;;;;;;4.40;4.00;;;;;16.98;63.34;100054.09;6316674;20;2743085;-50
2022/08/11 00:17:32;;;;;;;;;3.00;3.00;;;;;17.20;63.46;100049.63;6317497;20;2735736;-47
2022/08/11 00:20:12;;;;;;;;;5.00;5.00;;;;;16.58;65.96;100046.47;6290961;20;2738839;-48
2022/08/11 00:22:46;;;;;;;;;5.00;5.00;;;;;16.35;66.75;100048.31;6287864;20;2745121;-60
2022/08/11 00:25:21;;;;;;;;;5.00;5.00;;;;;16.73;65.53;100054.34;6286383;20;2742955;-60
2022/08/11 00:27:49;;;;;;;;;3.00;3.00;;;;;16.77;65.77;100058.53;6288064;20;2741912;-60
2022/08/11 00:30:17;;;;;;;;;4.50;4.50;;;;;16.46;66.52;100053.75;6286455;20;2747166;-60
2022/08/11 00:32:55;;;;;;;;;6.00;6.00;;;;;16.21;67.55;100053.97;6291822;20;2736735;-60
2022/08/11 00:35:30;;;;;;;;;6.00;3.00;;;;;16.54;66.18;100049.56;6289399;20;2743159;-59
2022/08/11 00:38:25;;;;;;;;;3.50;3.50;;;;;16.43;66.61;100043.16;6289190;20;2742965;-60
2022/08/11 00:41:03;;;;;;;;;5.50;4.50;;;;;17.14;63.63;100042.84;6289681;20;2745084;-59
2022/08/11 00:44:06;;;;;;;;;4.00;4.00;;;;;16.70;64.92;100047.31;6331782;20;3461841;-60
2022/08/11 00:47:05;;;;;;;;;3.00;3.00;;;;;16.38;66.37;100055.34;6316550;20;2739838;-59
2022/08/11 00:50:00;;;;;;;;;3.00;3.00;;;;;16.72;65.13;100048.06;6289113;20;2745092;-59
2022/08/11 00:52:52;;;;;;;;;4.00;4.00;;;;;17.18;63.19;100044.28;6292809;20;2754471;-47
2022/08/11 00:56:05;;;;;;;;;3.00;3.00;;;;;17.19;63.06;100045.16;6291490;20;2744148;-48
2022/08/11 00:59:38;;;;;;;;;4.00;4.00;;;;;17.13;63.39;100046.53;6285903;20;2752395;-47
2022/08/11 01:02:57;;;;;;;;;3.00;3.00;;;;;17.34;62.56;100042.00;6287340;20;2742959;-59
2022/08/11 01:06:14;;;;;;;;;3.00;3.00;;;;;17.24;63.13;100043.78;6289788;20;2739831;-60
2022/08/11 01:09:34;;;;;;;;;3.50;3.50;;;;;16.48;65.54;100045.47;6291170;20;2751326;-60
2022/08/11 01:12:42;;;;;;;;;4.00;4.00;;;;;16.32;66.79;100035.00;6286605;20;2750578;-60
2022/08/11 01:16:06;;;;;;;;;4.00;4.00;;;;;16.31;67.36;100040.56;6286898;20;2756495;-59
2022/08/11 01:19:34;;;;;;;;;4.00;4.00;;;;;16.38;67.40;100039.94;6290230;20;2752339;-60
2022/08/11 01:23:39;;;;;;;;;3.50;3.50;;;;;17.16;64.27;100038.13;6290968;20;2754621;-60
2022/08/11 01:26:37;;;;;;;;;3.00;3.00;;;;;17.50;62.84;100038.00;6288728;20;2743990;-60
2022/08/11 01:29:46;;;;;;;;;3.50;3.50;;;;;17.27;63.83;100035.41;6287839;20;2744036;-59
2022/08/11 01:33:45;;;;;;;;;3.00;3.00;;;;;17.44;62.96;100033.09;6282562;20;2749249;-59
2022/08/11 01:36:55;;;;;;;;;3.00;3.00;;;;;16.60;66.35;100035.50;6285426;20;2744103;-60
2022/08/11 01:40:00;;;;;;;;;2.00;2.00;;;;;16.40;67.39;100032.56;6287660;20;2744136;-60
2022/08/11 01:46:31;;;;;;;;;3.50;3.00;;;;;16.23;68.24;100022.19;6289015;20;2743053;-60
2022/08/11 01:49:55;;;;;;;;;4.00;2.00;;;;;16.16;68.68;100029.09;6283105;20;2742032;-59
2022/08/11 01:53:23;;;;;;;;;4.00;2.00;;;;;16.01;69.20;100023.91;6283373;20;2747211;-60
2022/08/11 01:56:37;;;;;;;;;4.50;3.50;;;;;16.13;69.05;100026.63;6285415;20;2748218;-60
2022/08/11 01:59:34;;;;;;;;;4.50;2.00;;;;;15.87;69.77;100024.13;6288816;20;2741939;-63
2022/08/11 02:02:55;;;;;;;;;3.50;3.50;;;;;16.13;69.28;100023.91;6284056;20;2754574;-63
2022/08/11 02:05:59;;;;;;;;;5.00;5.00;;;;;15.82;70.41;100020.91;6285110;20;2745117;-63
2022/08/11 02:09:10;;;;;;;;;3.00;3.00;;;;;15.86;70.33;100011.56;6284181;20;2756565;-63
2022/08/11 02:11:40;;;;;;;;;3.00;3.00;;;;;16.82;67.07;100019.22;6291848;20;2739862;-63
2022/08/11 02:14:43;;;;;;;;;1.00;1.00;;;;;16.49;67.91;100019.25;6284987;20;2737762;-63
2022/08/11 02:25:24;;;;;;;;;3.00;3.00;;;;;16.43;68.05;100016.06;6319488;20;2739834;-63
2022/08/11 02:28:27;;;;;;;;;5.00;3.50;;;;;16.13;69.68;100010.38;6278231;20;2750318;-63
2022/08/11 02:35:00;;;;;;;;;4.00;3.00;;;;;16.02;70.49;100014.78;6286413;20;2739966;-63
2022/08/11 02:37:57;;;;;;;;;3.00;3.00;;;;;16.09;70.41;100012.47;6282850;20;2754529;-63
2022/08/11 02:42:21;;;;;;;;;2.00;2.00;;;;;16.71;67.48;100005.66;6283581;20;2737766;-63
2022/08/11 02:44:28;;;;;;;;;4.50;3.00;;;;;16.40;68.76;100015.41;6285371;20;2750404;-63
2022/08/11 02:47:21;;;;;;;;;2.50;2.50;;;;;16.47;68.65;100019.38;6284998;20;2744033;-63
2022/08/11 02:50:12;;;;;;;;;2.00;2.00;;;;;15.96;70.14;100012.56;6281264;20;2754844;-63
2022/08/11 02:53:16;;;;;;;;;4.50;4.50;;;;;15.71;71.36;100004.63;6282989;20;2751336;-63
2022/08/11 02:56:45;;;;;;;;;4.00;3.00;;;;;15.88;71.34;100004.19;6276593;20;2737768;-63
2022/08/11 02:59:52;;;;;;;;;6.00;5.00;;;;;16.11;70.69;100006.91;6285981;20;2747154;-63
2022/08/11 03:02:47;;;;;;;;;3.00;3.00;;;;;15.88;71.63;99998.78;6285889;20;2721261;-63
2022/08/11 03:06:04;;;;;;;;;3.50;3.50;;;;;15.67;71.61;100005.84;6285188;20;2748161;-63
2022/08/11 03:09:13;;;;;;;;;3.00;3.00;;;;;16.07;71.26;100000.03;6283814;20;2754494;-63
2022/08/11 03:18:42;;;;;;;;;4.00;3.00;;;;;15.53;72.82;99994.25;6285903;20;2741007;-60
2022/08/11 03:21:23;;;;;;;;;6.00;4.50;;;;;15.44;73.46;99994.94;6288006;20;2752353;-60
2022/08/11 03:24:34;;;;;;;;;4.00;4.00;;;;;15.63;72.54;99999.78;6292033;20;2738838;-60
2022/08/11 03:27:35;;;;;;;;;11.80;10.00;;;;;15.13;73.91;99989.16;6312023;20;2792998;-60
2022/08/11 03:30:34;;;;;;;;;9.50;8.00;;;;;15.21;73.98;99999.41;6286572;20;2762802;-59
2022/08/11 03:36:40;;;;;;;;;7.50;6.00;;;;;15.29;73.30;99993.41;6291080;20;2733581;-61
2022/08/11 03:40:04;;;;;;;;;10.50;6.00;;;;;14.71;75.37;99995.94;6289396;20;2758574;-59
2022/08/11 03:43:00;;;;;;;;;9.00;6.60;;;;;15.16;74.23;99996.16;6316886;20;2753405;-59
2022/08/11 03:46:25;;;;;;;;;4.00;4.00;;;;;15.62;73.18;99999.94;6288886;20;2744798;-59
2022/08/11 03:49:26;;;;;;;;;5.00;5.00;;;;;15.43;74.12;100004.06;6286329;20;2748185;-60
2022/08/11 03:52:07;;;;;;;;;4.00;4.00;;;;;16.17;71.07;100003.75;6281678;20;2744018;-59
2022/08/11 03:55:20;;;;;;;;;4.00;4.00;;;;;16.30;70.44;100003.59;6288884;20;2749264;-60
2022/08/11 03:58:45;;;;;;;;;6.00;4.00;;;;;16.23;70.54;100008.66;6290519;20;2754517;-61
2022/08/11 04:02:14;;;;;;;;;4.50;2.00;;;;;16.49;69.92;100005.69;6289127;20;2747148;-60
2022/08/11 04:05:19;;;;;;;;;5.50;4.00;;;;;16.50;69.65;99999.28;6291004;20;2745096;-60
2022/08/11 04:08:51;;;;;;;;;9.00;5.00;;;;;15.96;72.16;100000.88;6291400;20;2749368;-57
2022/08/11 04:11:58;;;;;;;;;10.00;7.00;;;;;16.22;71.43;100004.22;6285623;20;2755454;-58
2022/08/11 04:18:49;;;;;;;;;6.50;5.00;;;;;16.44;70.05;100001.50;6289392;20;2741912;-58
2022/08/11 04:22:03;;;;;;;;;3.00;3.00;;;;;16.77;68.65;100002.50;6290128;20;2756518;-61
2022/08/11 04:24:59;;;;;;;;;3.00;3.00;;;;;16.85;68.92;100000.00;6293387;20;2752360;-60
2022/08/11 04:28:10;;;;;;;;;4.00;4.00;;;;;17.23;67.46;100003.22;6289052;20;2748197;-60
2022/08/11 04:31:41;;;;;;;;;7.50;6.00;;;;;17.28;67.42;100015.41;6292673;20;2745191;-58
2022/08/11 04:35:25;;;;;;;;;6.71;4.57;;;;;17.45;66.54;100007.69;6328218;20;3461708;-59
2022/08/11 04:38:37;;;;;;;;;2.50;2.50;;;;;17.65;66.29;100008.69;6315953;20;2738938;-60
2022/08/11 04:43:19;;;;;;;;;4.00;4.00;;;;;17.76;66.19;100009.47;6291284;20;2754443;-60
2022/08/11 04:45:29;;;;;;;;;5.00;3.00;;;;;18.10;65.04;100009.28;6287594;20;2745150;-59
2022/08/11 05:03:34;;;;;;;;;4.50;3.00;;;;;19.04;62.76;100030.88;6293384;20;2745447;-60
2022/08/11 05:06:24;;;;;;;;;3.50;3.00;;;;;18.79;63.91;100032.22;6287181;20;2737786;-60
2022/08/11 05:09:18;;;;;;;;;3.00;3.00;;;;;19.38;61.40;100033.16;6289045;20;2742041;-61
2022/08/11 05:12:18;;;;;;;;;3.00;3.00;;;;;18.86;63.79;100033.41;6292031;20;2740921;-60
2022/08/11 05:36:50;;;;;;;;;3.00;3.00;;;;;22.38;52.27;100046.31;6340664;20;1833990;-61
2022/08/11 05:57:38;;;;;;;;;2.67;1.67;;;;;21.73;53.27;100043.06;6287173;20;2734645;-59
2022/08/11 06:00:23;;;;;;;;;4.00;3.00;;;;;22.38;52.00;100043.59;6341303;20;2755461;-59
2022/08/11 06:03:06;;;;;;;;;4.00;2.00;;;;;21.90;52.94;100042.16;6309581;20;2730454;-60
2022/08/11 06:05:37;;;;;;;;;1.67;1.67;;;;;22.16;52.41;100049.56;6316638;20;2746372;-59
2022/08/11 06:08:14;;;;;;;;;3.20;2.00;;;;;21.85;52.36;100041.78;6336952;20;2748500;-60
2022/08/11 06:10:44;;;;;;;;;4.00;2.20;;;;;22.35;50.98;100042.03;6340435;20;2753621;-59
2022/08/11 06:13:16;;;;;;;;;2.20;1.80;;;;;23.74;46.23;100046.28;6302447;20;2750325;-54
2022/08/11 06:15:50;;;;;;;;;3.00;3.00;;;;;22.85;48.27;100043.09;6339656;20;2737740;-57
2022/08/11 06:18:20;;;;;;;;;3.00;1.00;;;;;22.72;48.98;100051.81;6318903;20;2732562;-51
2022/08/11 06:20:54;;;;;;;;;2.20;1.00;;;;;23.54;46.27;100054.81;6340258;20;2725288;-57
2022/08/11 06:23:31;;;;;;;;;2.40;2.00;;;;;23.32;46.77;100050.81;6340492;20;2738894;-51
2022/08/11 06:26:10;;;;;;;;;1.00;1.00;;;;;22.49;49.31;100059.72;6318754;20;2721135;-57
2022/08/11 06:28:44;;;;;;;;;3.00;3.00;;;;;22.74;48.72;100046.16;6341010;20;2756494;-57
2022/08/11 06:31:23;;;;;;;;;0.67;0.67;;;;;22.61;48.75;100045.75;6289807;20;2728394;-59
2022/08/11 06:34:41;;;;;;;;;1.33;1.33;;;;;22.49;48.59;100046.03;6317598;20;2724299;-57
2022/08/11 06:37:45;;;;;;;;;2.00;2.00;;;;;23.09;48.29;100047.00;6315378;20;2750247;-57
2022/08/11 06:44:12;;;;;;;;;0.00;0.00;;;;;23.22;47.39;100041.88;6340351;20;2729590;-56
2022/08/11 06:46:54;;;;;;;;;5.20;3.00;;;;;25.81;41.93;100055.34;6340738;20;2746070;-58
2022/08/11 06:52:36;;;;;;;;;2.00;2.00;;;;;27.51;37.90;100063.81;6339394;20;2750288;-61
2022/08/11 07:02:14;;;;;;;;;2.40;2.40;;;;;27.28;38.14;100061.25;6309273;20;2736758;-60
2022/08/11 07:05:44;;;;;;;;;0.40;0.40;;;;;26.55;40.50;100054.72;6307652;20;2727406;-60
2022/08/11 07:31:12;;;;;;;;;1.00;1.00;;;;;25.16;40.92;100041.00;6308180;20;2731529;-60
2022/08/11 07:34:09;;;;;;;;;1.40;0.80;;;;;26.83;38.76;100039.22;6337805;20;2728378;-59
2022/08/11 07:37:02;;;;;;;;;2.20;2.00;;;;;25.68;38.52;100038.63;6338021;20;2745651;-60
2022/08/11 07:39:35;;;;;;;;;0.00;0.00;;;;;25.17;37.70;100048.22;6309331;20;2727418;-60
2022/08/11 07:42:12;;;;;;;;;1.60;0.40;;;;;25.99;37.01;100033.91;6338336;20;2728372;-62
2022/08/11 07:53:15;;;;;;;;;1.00;1.00;;;;;26.59;37.85;100031.25;6305791;20;2731570;-59
2022/08/11 07:55:48;;;;;;;;;1.00;1.00;;;;;26.69;36.98;100027.16;6338774;20;2729510;-60
2022/08/11 08:18:23;;;;;;;;;2.00;1.00;;;;;27.10;34.82;100025.78;6344001;20;2727411;-64
2022/08/11 08:21:10;;;;;;;;;0.20;0.00;;;;;26.48;34.72;100025.13;6340894;20;2731526;-63
2022/08/11 08:23:45;;;;;;;;;1.00;0.40;;;;;26.11;35.98;100022.44;6343205;20;2726379;-65
2022/08/11 08:31:58;;;;;;;;;1.20;1.20;;;;;27.77;33.15;100021.84;6342928;20;2730893;-64
2022/08/11 08:34:27;;;;;;;;;0.40;0.40;;;;;26.05;35.23;100016.63;6340753;20;2727497;-64
2022/08/11 08:37:00;;;;;;;;;0.20;0.20;;;;;26.35;34.71;100013.91;6343365;20;2730041;-67
2022/08/11 08:39:46;;;;;;;;;1.40;0.20;;;;;27.01;33.09;100018.66;6343044;20;2727443;-66
2022/08/11 08:42:25;;;;;;;;;0.60;0.60;;;;;26.85;33.52;100012.31;6343996;20;2729542;-61
2022/08/11 08:45:14;;;;;;;;;2.00;1.00;;;;;26.53;34.00;100012.72;6344539;20;2728375;-60
2022/08/11 08:48:10;;;;;;;;;1.00;0.00;;;;;25.90;35.25;100009.41;6343948;20;2727329;-60
2022/08/11 08:53:51;;;;;;;;;0.00;0.00;;;;;26.20;35.98;100010.31;6341473;20;2729432;-60
2022/08/11 08:56:28;;;;;;;;;0.40;0.40;;;;;27.50;33.71;100006.94;6342536;20;2727341;-67
2022/08/11 08:59:02;;;;;;;;;3.80;1.20;;;;;27.29;34.43;100005.88;6344041;20;2727591;-67
2022/08/11 09:01:47;;;;;;;;;1.00;1.00;;;;;27.92;32.48;100005.25;6344060;20;2724259;-68
2022/08/11 09:04:19;;;;;;;;;1.00;1.00;;;;;28.18;32.12;100005.44;6344486;20;2731528;-67
2022/08/11 09:06:50;;;;;;;;;1.00;1.00;;;;;28.35;31.55;100005.97;6341700;20;2730505;-67
2022/08/11 09:09:22;;;;;;;;;0.80;0.60;;;;;27.91;31.79;100009.03;6343257;20;2728455;-60
2022/08/11 09:11:53;;;;;;;;;0.00;0.00;;;;;27.65;32.79;100002.22;6342266;20;2729433;-60
2022/08/11 09:17:26;;;;;;;;;1.00;1.00;;;;;28.57;31.60;99987.47;6339925;20;2727340;-60
2022/08/11 09:20:13;;;;;;;;;0.80;0.00;;;;;27.77;32.75;99986.81;6342644;20;2730491;-60
2022/08/11 09:28:48;;;;;;;;;0.20;0.20;;;;;27.75;31.62;99983.44;6343109;20;2727377;-59
2022/08/11 09:31:21;;;;;;;;;1.00;1.00;;;;;27.83;31.49;99981.59;6344686;20;2739227;-60
2022/08/11 09:33:54;;;;;;;;;4.40;2.00;;;;;27.63;31.46;99962.94;6307212;20;2754435;-60
2022/08/11 09:42:04;;;;;;;;;1.00;0.40;;;;;27.44;32.02;99969.13;6342479;20;2729496;-60
2022/08/11 09:44:51;;;;;;;;;1.20;0.40;;;;;26.99;33.01;99960.09;6344494;20;2733995;-60
2022/08/11 09:47:29;;;;;;;;;0.00;0.00;;;;;27.07;31.72;99966.38;6340823;20;2729490;-60
2022/08/11 09:50:02;;;;;;;;;0.80;0.80;;;;;27.69;30.92;99959.38;6343342;20;2735687;-60
2022/08/11 09:52:39;;;;;;;;;1.80;0.20;;;;;28.17;28.89;99975.25;6341256;20;2726508;-60
2022/08/11 09:55:28;;;;;;;;;1.00;0.00;;;;;28.18;29.51;99969.56;6340784;20;2721100;-59
2022/08/11 09:58:12;;;;;;;;;0.00;0.00;;;;;28.20;29.72;99964.69;6342785;20;2735721;-60
2022/08/11 10:01:04;;;;;;;;;0.20;0.20;;;;;28.81;28.56;99954.84;6340790;20;2727367;-60
2022/08/11 10:03:39;;;;;;;;;0.00;0.00;;;;;28.07;30.00;99956.31;6337569;20;2733599;-59
2022/08/11 10:09:05;;;;;;;;;0.40;0.40;;;;;27.90;30.21;99947.47;6339927;20;2736083;-60
2022/08/11 10:11:37;;;;;;;;;0.00;0.00;;;;;29.47;28.06;99941.19;6340623;20;2731506;-57
2022/08/11 10:17:10;;;;;;;;;0.00;0.00;;;;;28.89;28.84;99935.28;6340020;20;2727373;-59
2022/08/11 10:19:45;;;;;;;;;1.20;0.00;;;;;29.51;28.22;99945.22;6342925;20;2727423;-60
2022/08/11 10:28:11;;;;;;;;;0.40;0.40;;;;;29.64;28.65;99929.69;6341402;20;2727337;-51
2022/08/11 10:34:00;;;;;;;;;0.00;0.00;;;;;28.55;28.94;99927.94;6340511;20;2727313;-60
2022/08/11 10:36:47;;;;;;;;;0.00;0.00;;;;;28.56;27.90;99929.63;6338615;20;2735695;-58
2022/08/11 10:39:19;;;;;;;;;0.80;0.80;;;;;28.95;28.59;99917.03;6310217;20;2720123;-60
2022/08/11 10:44:53;;;;;;;;;0.00;0.00;;;;;27.07;31.21;99914.00;6342594;20;2728445;-61
2022/08/11 10:47:33;;;;;;;;;1.20;0.00;;;;;28.21;29.84;99919.44;6336507;20;2729446;-60
2022/08/11 10:58:49;;;;;;;;;0.00;0.00;;;;;29.23;28.36;99903.06;6341401;20;2727415;-57
2022/08/11 11:01:42;;;;;;;;;0.60;0.60;;;;;29.74;27.04;99899.69;6340249;20;2735690;-59
2022/08/11 11:04:19;;;;;;;;;0.00;0.00;;;;;29.22;27.87;99891.13;6332717;20;2727468;-57
2022/08/11 11:07:23;;;;;;;;;0.00;0.00;;;;;30.18;26.18;99887.06;6337966;20;2731651;-56
2022/08/11 11:10:05;;;;;;;;;0.20;0.20;;;;;29.80;26.58;99893.28;6337845;20;2733580;-58
2022/08/11 11:18:35;;;;;;;;;0.40;0.40;;;;;29.77;27.03;99888.19;6342049;20;2726280;-59
2022/08/11 11:21:16;;;;;;;;;1.40;0.00;;;;;30.26;27.46;99884.06;6341405;20;2737763;-58
2022/08/11 11:24:38;;;;;;;;;0.40;0.40;;;;;30.62;26.77;99875.19;6305921;20;2731506;-57
2022/08/11 11:27:25;;;;;;;;;0.80;0.80;;;;;28.98;28.28;99878.75;6339083;20;2722189;-58
2022/08/11 11:30:04;;;;;;;;;0.00;0.00;;;;;28.33;29.14;99874.66;6338827;20;2727338;-58
2022/08/11 11:33:13;;;;;;;;;1.00;1.00;;;;;29.08;28.30;99879.22;6337490;20;2729435;-58
2022/08/11 11:36:17;;;;;;;;;1.00;0.00;;;;;28.50;29.26;99870.53;6341153;20;2727345;-58
2022/08/11 11:38:47;;;;;;;;;0.00;0.00;;;;;27.15;30.94;99869.78;6337280;20;2727393;-59
2022/08/11 11:41:25;;;;;;;;;0.00;0.00;;;;;27.92;30.05;99879.13;6340286;20;2737749;-59
2022/08/11 11:43:57;;;;;;;;;0.00;0.00;;;;;28.14;30.02;99871.59;6344527;20;2727357;-59
2022/08/11 11:46:31;;;;;;;;;0.40;0.00;;;;;28.06;30.13;99869.00;6343562;20;2729437;-58
2022/08/11 11:49:08;;;;;;;;;0.00;0.00;;;;;27.44;31.18;99864.31;6342166;20;2731555;-59
2022/08/11 11:51:51;;;;;;;;;0.00;0.00;;;;;27.49;31.11;99864.56;6345392;20;2725258;-59
2022/08/11 11:54:27;;;;;;;;;0.20;0.20;;;;;28.09;29.88;99868.59;6344747;20;2733605;-59
2022/08/11 12:01:14;;;;;;;;;0.00;0.00;;;;;27.42;30.79;99870.03;6342985;20;2727347;-60
2022/08/11 12:02:41;;;;;;;;;1.00;1.00;;;;;28.06;30.14;99874.53;6343318;20;2727369;-59
2022/08/11 12:05:11;;;;;;;;;0.00;0.00;;;;;27.50;31.29;99867.13;6338024;20;2728434;-59
2022/08/11 12:13:50;;;;;;;;;0.40;0.40;;;;;26.89;32.62;99856.59;6347168;20;2722182;-59
2022/08/11 12:16:23;;;;;;;;;0.00;0.00;;;;;27.06;32.73;99856.31;6342776;20;2733583;-59
2022/08/11 12:19:13;;;;;;;;;0.80;0.80;;;;;27.20;31.78;99854.56;6344456;20;2729418;-60
2022/08/11 12:27:26;;;;;;;;;1.00;1.00;;;;;27.31;31.58;99848.53;6340025;20;2733599;-57
2022/08/11 12:30:08;;;;;;;;;0.00;0.00;;;;;27.15;31.53;99844.13;6340119;20;2731633;-58
2022/08/11 12:32:40;;;;;;;;;0.40;0.40;;;;;27.19;31.53;99850.94;6339260;20;2727532;-58
2022/08/11 12:35:10;;;;;;;;;1.00;1.00;;;;;27.64;30.84;99836.88;6338168;20;1840512;-58
2022/08/11 12:37:48;;;;;;;;;0.00;0.00;;;;;27.89;31.13;99840.91;6309907;20;2727357;-59
2022/08/11 12:46:36;;;;;;;;;1.20;1.20;;;;;27.58;31.05;99827.50;6342573;20;2729474;-60
2022/08/11 12:52:44;;;;;;;;;1.00;1.00;;;;;28.04;31.84;99826.94;6338855;20;2727409;-60
2022/08/11 12:58:14;;;;;;;;;0.20;0.20;;;;;27.88;31.68;99824.53;6342613;20;2731534;-59
2022/08/11 12:58:17;;;;;;;;;0.60;0.60;;;;;28.09;30.59;99824.44;6343040;20;2720153;-61
2022/08/11 13:06:30;;;;;;;;;0.00;0.00;;;;;27.29;30.66;99810.09;6340726;20;2735694;-60
2022/08/11 13:09:00;;;;;;;;;0.20;0.00;;;;;28.48;29.85;99811.03;6341545;20;2733643;-59
2022/08/11 13:14:18;;;;;;;;;0.00;0.00;;;;;27.46;29.62;99812.56;6338480;20;2729461;-60
2022/08/11 13:19:37;;;;;;;;;0.00;0.00;;;;;28.91;28.74;99808.75;6345173;20;2727474;-59
2022/08/11 13:22:07;;;;;;;;;1.60;0.20;;;;;28.52;29.22;99792.97;6342501;20;2726331;-60
2022/08/11 13:24:37;;;;;;;;;0.00;0.00;;;;;28.69;28.91;99798.97;6343044;20;2731548;-59
2022/08/11 13:27:07;;;;;;;;;0.60;0.60;;;;;28.34;29.87;99788.00;6340920;20;2729442;-60
2022/08/11 13:29:41;;;;;;;;;0.60;0.00;;;;;27.72;31.20;99790.66;6342441;20;2727390;-60
2022/08/11 13:32:12;;;;;;;;;1.00;1.00;;;;;27.77;31.32;99792.81;6342516;20;2739877;-58
2022/08/11 13:34:42;;;;;;;;;0.00;0.00;;;;;27.32;31.67;99784.88;6307541;20;2735684;-58
2022/08/11 13:37:14;;;;;;;;;1.00;1.00;;;;;27.57;32.21;99792.72;6339693;20;2726358;-59
2022/08/11 13:39:46;;;;;;;;;0.00;0.00;;;;;27.35;31.60;99783.63;6344022;20;2735719;-58
2022/08/11 13:42:18;;;;;;;;;0.20;0.00;;;;;28.23;30.96;99782.03;6341691;20;2730441;-58
2022/08/11 13:44:49;;;;;;;;;0.20;0.00;;;;;27.79;31.38;99780.50;6341636;20;2726615;-59
2022/08/11 13:47:22;;;;;;;;;0.80;0.80;;;;;27.18;32.23;99782.25;6339017;20;2727358;-58
2022/08/11 13:49:53;;;;;;;;;0.40;0.00;;;;;27.98;31.52;99778.94;6341167;20;2726341;-57
2022/08/11 13:52:23;;;;;;;;;0.00;0.00;;;;;27.78;31.88;99773.31;6345235;20;2727362;-59
2022/08/11 13:54:53;;;;;;;;;0.00;0.00;;;;;27.62;32.00;99773.66;6339896;20;2729427;-57
2022/08/11 13:57:24;;;;;;;;;1.20;0.80;;;;;27.82;31.33;99768.25;6339226;20;2727441;-60
2022/08/11 14:00:13;;;;;;;;;1.00;1.00;;;;;27.42;31.36;99779.03;6339943;20;2727429;-59
2022/08/11 14:02:57;;;;;;;;;1.40;0.20;;;;;27.18;31.76;99782.25;6344094;20;2725375;-58
2022/08/11 14:05:50;;;;;;;;;0.00;0.00;;;;;27.72;31.97;99768.59;6338832;20;2729627;-59
2022/08/11 14:08:27;;;;;;;;;1.20;0.00;;;;;26.87;33.02;99769.66;6341075;20;2727394;-58
2022/08/11 14:14:25;;;;;;;;;0.00;0.00;;;;;27.01;31.59;99759.59;6339378;20;2727872;-62
2022/08/11 14:16:56;;;;;;;;;1.00;1.00;;;;;27.31;32.37;99761.13;6339346;20;2729436;-62
2022/08/11 14:19:27;;;;;;;;;0.60;0.60;;;;;27.63;31.85;99761.53;6340533;20;2733581;-57
2022/08/11 14:22:07;;;;;;;;;0.20;0.20;;;;;27.85;31.63;99750.44;6344669;20;2721076;-59
2022/08/11 14:24:50;;;;;;;;;1.00;1.00;;;;;27.53;31.39;99750.03;6340521;20;2723185;-59
2022/08/11 14:27:25;;;;;;;;;1.00;1.00;;;;;27.61;31.70;99751.78;6343310;20;2724248;-59
2022/08/11 14:33:03;;;;;;;;;1.40;1.00;;;;;28.02;31.18;99746.28;6340976;20;2727349;-59
2022/08/11 14:35:46;;;;;;;;;0.00;0.00;;;;;27.50;31.44;99751.28;6339406;20;2733573;-61
2022/08/11 14:38:19;;;;;;;;;2.60;1.00;;;;;27.53;31.63;99752.78;6338539;20;2739964;-59
2022/08/11 14:49:36;;;;;;;;;0.00;0.00;;;;;27.61;30.81;99738.81;6338395;20;2731535;-60
2022/08/11 14:52:26;;;;;;;;;0.00;0.00;;;;;27.08;31.94;99741.22;6339826;20;2728378;-58
2022/08/11 14:57:45;;;;;;;;;1.20;1.20;;;;;26.83;32.47;99740.78;6335934;20;2732550;-59
2022/08/11 15:00:26;;;;;;;;;0.00;0.00;;;;;26.62;32.04;99738.88;6340480;20;2729548;-58
2022/08/11 15:03:11;;;;;;;;;2.80;1.20;;;;;26.35;33.01;99732.25;6335767;20;2735684;-60
2022/08/11 15:05:52;;;;;;;;;0.00;0.00;;;;;26.70;31.98;99738.78;6337053;20;2727321;-59
2022/08/11 15:08:55;;;;;;;;;0.60;0.00;;;;;26.96;31.63;99740.88;6337424;20;2716021;-60
2022/08/11 15:17:06;;;;;;;;;1.00;1.00;;;;;26.74;32.25;99736.47;6336278;20;2022191;-59
2022/08/11 15:17:10;;;;;;;;;0.33;0.00;;;;;26.80;32.32;99739.28;6292064;20;2727350;-59
2022/08/11 15:24:18;;;;;;;;;0.80;0.80;;;;;26.25;33.19;99732.56;6339340;20;2733951;-60
2022/08/11 15:25:22;;;;;;;;;0.80;0.40;;;;;26.60;32.58;99741.00;6341809;20;2726417;-55
2022/08/11 15:39:31;;;;;;;;;2.40;0.40;;;;;26.20;33.97;99743.31;6335007;20;2735729;-58
2022/08/11 15:48:06;;;;;;;;;0.00;0.00;;;;;26.23;33.55;99745.69;6336242;20;2731593;-58
2022/08/11 15:50:47;;;;;;;;;0.60;0.60;;;;;25.42;35.27;99737.41;6343325;20;2728374;-58
2022/08/11 15:53:33;;;;;;;;;0.40;0.40;;;;;25.87;35.41;99731.91;6341027;20;2731567;-59
2022/08/11 15:56:03;;;;;;;;;1.00;1.00;;;;;25.57;34.54;99735.53;6318964;20;2731504;-59
2022/08/11 16:04:46;;;;;;;;;1.00;0.67;;;;;25.65;34.61;99725.47;6293835;20;2721159;-59
2022/08/11 16:07:25;;;;;;;;;1.20;1.20;;;;;25.26;35.65;99726.59;6336827;20;2726308;-59
2022/08/11 16:10:22;;;;;;;;;1.00;1.00;;;;;25.62;34.94;99716.56;6341777;20;2727343;-58
2022/08/11 16:18:45;;;;;;;;;1.00;1.00;;;;;25.76;35.57;99716.72;6339124;20;2723198;-58
2022/08/11 16:21:31;;;;;;;;;0.40;0.40;;;;;25.46;36.24;99711.25;6340133;20;2727371;-59
2022/08/11 16:24:11;;;;;;;;;0.80;0.80;;;;;25.42;35.64;99707.16;6338386;20;2720066;-59
2022/08/11 16:27:03;;;;;;;;;1.00;1.00;;;;;25.39;35.77;99705.66;6336133;20;2727425;-59
2022/08/11 16:29:48;;;;;;;;;1.00;1.00;;;;;25.91;35.37;99709.34;6339794;20;2735758;-59
2022/08/11 16:32:22;;;;;;;;;1.00;1.00;;;;;26.04;35.05;99708.59;6338788;20;2730553;-59
2022/08/11 16:41:15;;;;;;;;;1.60;0.00;;;;;25.93;34.69;99709.97;6337123;20;2738244;-59
2022/08/11 16:49:41;;;;;;;;;1.20;0.00;;;;;25.82;35.15;99697.53;6340682;20;2735743;-57
2022/08/11 16:52:23;;;;;;;;;2.00;0.00;;;;;25.83;35.61;99709.41;6338932;20;2727381;-56
2022/08/11 16:54:52;;;;;;;;;3.60;0.00;;;;;25.06;37.23;99727.09;6335494;20;2733691;-55
2022/08/11 17:00:17;;;;;;;;;1.40;0.60;;;;;24.21;41.49;99730.88;6337478;20;2728598;-54
2022/08/11 17:14:54;;;;;;;;;1.60;1.60;;;;;23.30;45.04;99740.53;6306666;20;2741992;-61
2022/08/11 17:17:37;;;;;;;;;1.80;1.60;;;;;23.55;44.95;99740.44;6336791;20;2750238;-59
2022/08/11 17:20:14;;;;;;;;;2.20;2.20;;;;;22.94;47.07;99746.38;6306660;20;2742965;-56
2022/08/11 17:25:54;;;;;;;;;1.60;1.00;;;;;23.00;48.34;99740.22;6338329;20;2727746;-60
2022/08/11 17:28:34;;;;;;;;;2.00;2.00;;;;;22.72;49.65;99737.00;6333351;20;2735742;-62
2022/08/11 17:36:44;;;;;;;;;2.20;2.00;;;;;21.97;54.84;99764.38;6304827;20;2750236;-60
2022/08/11 17:39:14;;;;;;;;;1.00;1.00;;;;;21.85;53.71;99760.22;6284672;20;2732062;-60
2022/08/11 17:50:13;;;;;;;;;1.67;1.67;;;;;22.14;51.21;99770.72;6316842;20;2729488;-58
2022/08/11 18:01:18;;;;;;;;;2.80;2.00;;;;;22.80;49.55;99790.88;6304847;20;2744092;-58
2022/08/11 18:03:48;;;;;;;;;2.20;2.20;;;;;22.69;50.02;99793.94;6335483;20;2752331;-58
2022/08/11 18:06:30;;;;;;;;;2.60;2.60;;;;;22.23;51.55;99785.34;6296807;20;2750463;-59
